sensor_id;sensor_type;location;lat;lon;timestamp;P1;durP1;ratioP1;P2;durP2;ratioP2
19788;SDS011;10054;59.332;18.244;2023-07-31T00:00:23;6.27;;;5.10;;
19788;SDS011;10054;59.332;18.244;2023-07-31T00:02:52;5.13;;;4.73;;
19788;SDS011;10054;59.332;18.244;2023-07-31T00:05:21;6.40;;;4.43;;
19788;SDS011;10054;59.332;18.244;2023-07-31T00:07:50;7.27;;;4.67;;
19788;SDS011;10054;59.332;18.244;2023-07-31T00:10:20;4.97;;;4.57;;
19788;SDS011;10054;59.332;18.244;2023-07-31T00:12:49;4.90;;;4.40;;
19788;SDS011;10054;59.332;18.244;2023-07-31T00:15:17;4.87;;;4.33;;
19788;SDS011;10054;59.332;18.244;2023-07-31T00:17:46;6.23;;;4.70;;
19788;SDS011;10054;59.332;18.244;2023-07-31T00:20:14;5.50;;;4.50;;
19788;SDS011;10054;59.332;18.244;2023-07-31T00:22:43;5.03;;;4.53;;
19788;SDS011;10054;59.332;18.244;2023-07-31T00:25:12;4.90;;;4.50;;
19788;SDS011;10054;59.332;18.244;2023-07-31T00:27:40;4.83;;;4.43;;
19788;SDS011;10054;59.332;18.244;2023-07-31T00:30:11;6.87;;;4.80;;
19788;SDS011;10054;59.332;18.244;2023-07-31T00:32:39;5.13;;;4.60;;
19788;SDS011;10054;59.332;18.244;2023-07-31T00:35:09;5.17;;;4.40;;
19788;SDS011;10054;59.332;18.244;2023-07-31T00:37:38;4.90;;;4.50;;
19788;SDS011;10054;59.332;18.244;2023-07-31T00:40:07;5.00;;;4.40;;
19788;SDS011;10054;59.332;18.244;2023-07-31T00:42:36;4.83;;;4.43;;
19788;SDS011;10054;59.332;18.244;2023-07-31T00:45:05;4.87;;;4.37;;
19788;SDS011;10054;59.332;18.244;2023-07-31T00:47:33;5.00;;;4.60;;
19788;SDS011;10054;59.332;18.244;2023-07-31T00:50:02;5.20;;;4.70;;
19788;SDS011;10054;59.332;18.244;2023-07-31T00:52:32;4.83;;;4.43;;
19788;SDS011;10054;59.332;18.244;2023-07-31T00:55:00;4.80;;;4.40;;
19788;SDS011;10054;59.332;18.244;2023-07-31T00:57:30;5.00;;;4.60;;
19788;SDS011;10054;59.332;18.244;2023-07-31T00:59:59;5.00;;;4.50;;
19788;SDS011;10054;59.332;18.244;2023-07-31T01:02:30;5.33;;;4.80;;
19788;SDS011;10054;59.332;18.244;2023-07-31T01:04:59;5.00;;;4.60;;
19788;SDS011;10054;59.332;18.244;2023-07-31T01:07:49;5.63;;;5.00;;
19788;SDS011;10054;59.332;18.244;2023-07-31T01:10:34;5.00;;;4.67;;
19788;SDS011;10054;59.332;18.244;2023-07-31T01:13:00;5.60;;;5.10;;
19788;SDS011;10054;59.332;18.244;2023-07-31T01:15:31;5.13;;;4.70;;
19788;SDS011;10054;59.332;18.244;2023-07-31T01:17:59;5.10;;;4.70;;
19788;SDS011;10054;59.332;18.244;2023-07-31T01:20:30;5.10;;;4.70;;
19788;SDS011;10054;59.332;18.244;2023-07-31T01:31:14;5.70;;;4.87;;
19788;SDS011;10054;59.332;18.244;2023-07-31T01:33:44;5.60;;;5.10;;
19788;SDS011;10054;59.332;18.244;2023-07-31T01:36:14;6.77;;;5.07;;
19788;SDS011;10054;59.332;18.244;2023-07-31T01:38:42;6.17;;;5.33;;
19788;SDS011;10054;59.332;18.244;2023-07-31T01:41:11;5.83;;;5.33;;
19788;SDS011;10054;59.332;18.244;2023-07-31T01:43:40;26.63;;;5.60;;
19788;SDS011;10054;59.332;18.244;2023-07-31T01:46:08;5.87;;;5.37;;
19788;SDS011;10054;59.332;18.244;2023-07-31T01:48:37;5.43;;;4.80;;
19788;SDS011;10054;59.332;18.244;2023-07-31T01:51:05;5.43;;;4.93;;
19788;SDS011;10054;59.332;18.244;2023-07-31T01:53:35;5.40;;;5.00;;
19788;SDS011;10054;59.332;18.244;2023-07-31T01:56:04;5.50;;;5.00;;
19788;SDS011;10054;59.332;18.244;2023-07-31T01:58:33;5.33;;;4.83;;
19788;SDS011;10054;59.332;18.244;2023-07-31T02:01:02;7.20;;;5.13;;
19788;SDS011;10054;59.332;18.244;2023-07-31T02:03:32;5.90;;;4.87;;
19788;SDS011;10054;59.332;18.244;2023-07-31T02:06:01;5.97;;;5.33;;
19788;SDS011;10054;59.332;18.244;2023-07-31T02:08:29;6.83;;;5.40;;
19788;SDS011;10054;59.332;18.244;2023-07-31T02:10:58;6.13;;;5.63;;
19788;SDS011;10054;59.332;18.244;2023-07-31T02:13:27;6.40;;;5.87;;
19788;SDS011;10054;59.332;18.244;2023-07-31T02:15:55;6.93;;;6.33;;
19788;SDS011;10054;59.332;18.244;2023-07-31T02:18:25;6.30;;;5.70;;
19788;SDS011;10054;59.332;18.244;2023-07-31T02:20:53;6.03;;;5.53;;
19788;SDS011;10054;59.332;18.244;2023-07-31T02:23:23;5.97;;;5.40;;
19788;SDS011;10054;59.332;18.244;2023-07-31T02:25:51;6.23;;;5.63;;
19788;SDS011;10054;59.332;18.244;2023-07-31T02:28:20;6.07;;;5.20;;
19788;SDS011;10054;59.332;18.244;2023-07-31T02:30:49;5.90;;;5.40;;
19788;SDS011;10054;59.332;18.244;2023-07-31T02:33:18;7.10;;;5.90;;
19788;SDS011;10054;59.332;18.244;2023-07-31T02:35:47;6.07;;;5.50;;
19788;SDS011;10054;59.332;18.244;2023-07-31T02:38:17;6.10;;;5.60;;
19788;SDS011;10054;59.332;18.244;2023-07-31T02:40:46;6.93;;;5.53;;
19788;SDS011;10054;59.332;18.244;2023-07-31T02:43:16;7.13;;;5.50;;
19788;SDS011;10054;59.332;18.244;2023-07-31T02:45:44;6.17;;;5.50;;
19788;SDS011;10054;59.332;18.244;2023-07-31T02:48:16;5.77;;;5.20;;
19788;SDS011;10054;59.332;18.244;2023-07-31T02:50:44;5.30;;;4.80;;
19788;SDS011;10054;59.332;18.244;2023-07-31T02:53:14;5.70;;;5.27;;
19788;SDS011;10054;59.332;18.244;2023-07-31T02:55:47;5.30;;;4.90;;
19788;SDS011;10054;59.332;18.244;2023-07-31T02:58:15;6.83;;;5.13;;
19788;SDS011;10054;59.332;18.244;2023-07-31T03:00:44;5.87;;;5.47;;
19788;SDS011;10054;59.332;18.244;2023-07-31T03:03:13;5.40;;;4.97;;
19788;SDS011;10054;59.332;18.244;2023-07-31T03:05:41;7.57;;;5.23;;
19788;SDS011;10054;59.332;18.244;2023-07-31T03:08:10;6.23;;;5.63;;
19788;SDS011;10054;59.332;18.244;2023-07-31T03:10:39;5.70;;;5.17;;
19788;SDS011;10054;59.332;18.244;2023-07-31T03:13:07;6.13;;;5.53;;
19788;SDS011;10054;59.332;18.244;2023-07-31T03:15:36;6.10;;;5.40;;
19788;SDS011;10054;59.332;18.244;2023-07-31T03:18:04;6.00;;;5.37;;
19788;SDS011;10054;59.332;18.244;2023-07-31T03:20:33;5.40;;;5.00;;
19788;SDS011;10054;59.332;18.244;2023-07-31T03:23:01;5.17;;;4.70;;
19788;SDS011;10054;59.332;18.244;2023-07-31T03:25:30;5.47;;;4.77;;
19788;SDS011;10054;59.332;18.244;2023-07-31T03:27:58;5.40;;;4.90;;
19788;SDS011;10054;59.332;18.244;2023-07-31T03:30:29;5.50;;;5.10;;
19788;SDS011;10054;59.332;18.244;2023-07-31T03:32:58;5.80;;;5.30;;
19788;SDS011;10054;59.332;18.244;2023-07-31T03:35:27;4.93;;;4.57;;
19788;SDS011;10054;59.332;18.244;2023-07-31T03:37:55;6.10;;;5.50;;
19788;SDS011;10054;59.332;18.244;2023-07-31T03:40:24;7.07;;;5.17;;
19788;SDS011;10054;59.332;18.244;2023-07-31T03:42:53;5.20;;;4.80;;
19788;SDS011;10054;59.332;18.244;2023-07-31T03:45:21;6.10;;;5.60;;
19788;SDS011;10054;59.332;18.244;2023-07-31T03:47:50;5.73;;;5.33;;
19788;SDS011;10054;59.332;18.244;2023-07-31T03:50:20;5.93;;;5.43;;
19788;SDS011;10054;59.332;18.244;2023-07-31T03:52:49;6.30;;;5.70;;
19788;SDS011;10054;59.332;18.244;2023-07-31T03:55:17;6.40;;;5.80;;
19788;SDS011;10054;59.332;18.244;2023-07-31T03:57:46;5.77;;;5.27;;
19788;SDS011;10054;59.332;18.244;2023-07-31T04:00:14;5.80;;;5.40;;
19788;SDS011;10054;59.332;18.244;2023-07-31T04:02:43;6.77;;;6.27;;
19788;SDS011;10054;59.332;18.244;2023-07-31T04:05:11;7.20;;;6.60;;
19788;SDS011;10054;59.332;18.244;2023-07-31T04:07:40;7.37;;;6.77;;
19788;SDS011;10054;59.332;18.244;2023-07-31T04:10:09;7.70;;;7.00;;
19788;SDS011;10054;59.332;18.244;2023-07-31T04:12:37;7.53;;;6.87;;
19788;SDS011;10054;59.332;18.244;2023-07-31T04:15:06;9.93;;;8.00;;
19788;SDS011;10054;59.332;18.244;2023-07-31T04:17:35;8.47;;;7.57;;
19788;SDS011;10054;59.332;18.244;2023-07-31T04:20:03;10.47;;;9.03;;
19788;SDS011;10054;59.332;18.244;2023-07-31T04:22:33;26.10;;;10.20;;
19788;SDS011;10054;59.332;18.244;2023-07-31T04:25:01;26.30;;;9.63;;
19788;SDS011;10054;59.332;18.244;2023-07-31T04:27:30;34.63;;;9.37;;
19788;SDS011;10054;59.332;18.244;2023-07-31T04:29:59;16.33;;;9.23;;
19788;SDS011;10054;59.332;18.244;2023-07-31T04:32:27;69.80;;;8.90;;
19788;SDS011;10054;59.332;18.244;2023-07-31T04:34:56;82.80;;;9.77;;
19788;SDS011;10054;59.332;18.244;2023-07-31T04:37:24;224.43;;;11.77;;
19788;SDS011;10054;59.332;18.244;2023-07-31T04:39:53;168.70;;;11.17;;
19788;SDS011;10054;59.332;18.244;2023-07-31T04:42:21;297.17;;;13.30;;
19788;SDS011;10054;59.332;18.244;2023-07-31T04:44:50;325.63;;;13.57;;
19788;SDS011;10054;59.332;18.244;2023-07-31T04:47:19;105.87;;;9.30;;
19788;SDS011;10054;59.332;18.244;2023-07-31T04:49:48;60.33;;;8.97;;
19788;SDS011;10054;59.332;18.244;2023-07-31T04:52:16;67.40;;;8.77;;
19788;SDS011;10054;59.332;18.244;2023-07-31T04:54:45;28.90;;;7.83;;
19788;SDS011;10054;59.332;18.244;2023-07-31T04:57:14;27.10;;;7.87;;
19788;SDS011;10054;59.332;18.244;2023-07-31T04:59:43;13.00;;;7.40;;
19788;SDS011;10054;59.332;18.244;2023-07-31T05:02:11;14.97;;;6.63;;
19788;SDS011;10054;59.332;18.244;2023-07-31T05:04:40;7.97;;;6.17;;
19788;SDS011;10054;59.332;18.244;2023-07-31T05:07:09;15.63;;;7.30;;
19788;SDS011;10054;59.332;18.244;2023-07-31T05:09:37;10.97;;;6.73;;
19788;SDS011;10054;59.332;18.244;2023-07-31T05:12:06;20.50;;;6.97;;
19788;SDS011;10054;59.332;18.244;2023-07-31T05:14:35;20.70;;;6.67;;
19788;SDS011;10054;59.332;18.244;2023-07-31T05:17:03;14.40;;;7.20;;
19788;SDS011;10054;59.332;18.244;2023-07-31T05:19:32;9.97;;;7.40;;
19788;SDS011;10054;59.332;18.244;2023-07-31T05:22:01;23.13;;;6.97;;
19788;SDS011;10054;59.332;18.244;2023-07-31T05:24:30;17.07;;;7.27;;
19788;SDS011;10054;59.332;18.244;2023-07-31T05:26:58;11.03;;;7.33;;
19788;SDS011;10054;59.332;18.244;2023-07-31T05:29:27;11.27;;;7.17;;
19788;SDS011;10054;59.332;18.244;2023-07-31T05:31:55;12.63;;;7.60;;
19788;SDS011;10054;59.332;18.244;2023-07-31T05:34:24;8.83;;;7.17;;
19788;SDS011;10054;59.332;18.244;2023-07-31T05:36:53;8.60;;;7.60;;
19788;SDS011;10054;59.332;18.244;2023-07-31T05:39:22;9.07;;;7.83;;
19788;SDS011;10054;59.332;18.244;2023-07-31T05:41:53;8.37;;;7.57;;
19788;SDS011;10054;59.332;18.244;2023-07-31T05:44:21;8.53;;;7.73;;
19788;SDS011;10054;59.332;18.244;2023-07-31T05:46:50;8.30;;;7.50;;
19788;SDS011;10054;59.332;18.244;2023-07-31T05:49:18;13.03;;;7.97;;
19788;SDS011;10054;59.332;18.244;2023-07-31T05:51:47;10.73;;;8.27;;
19788;SDS011;10054;59.332;18.244;2023-07-31T05:54:16;11.77;;;8.30;;
19788;SDS011;10054;59.332;18.244;2023-07-31T05:56:44;9.13;;;8.23;;
19788;SDS011;10054;59.332;18.244;2023-07-31T05:59:13;8.10;;;7.40;;
19788;SDS011;10054;59.332;18.244;2023-07-31T06:01:42;10.93;;;8.07;;
19788;SDS011;10054;59.332;18.244;2023-07-31T06:04:11;9.27;;;7.73;;
19788;SDS011;10054;59.332;18.244;2023-07-31T06:06:39;11.97;;;8.20;;
19788;SDS011;10054;59.332;18.244;2023-07-31T06:09:08;9.07;;;8.27;;
19788;SDS011;10054;59.332;18.244;2023-07-31T06:11:38;9.53;;;8.53;;
19788;SDS011;10054;59.332;18.244;2023-07-31T06:14:06;9.50;;;8.60;;
19788;SDS011;10054;59.332;18.244;2023-07-31T06:16:35;9.73;;;8.83;;
19788;SDS011;10054;59.332;18.244;2023-07-31T06:19:04;9.80;;;8.90;;
19788;SDS011;10054;59.332;18.244;2023-07-31T06:21:33;10.00;;;9.07;;
19788;SDS011;10054;59.332;18.244;2023-07-31T06:24:04;10.00;;;9.05;;
19788;SDS011;10054;59.332;18.244;2023-07-31T06:26:33;10.20;;;8.63;;
19788;SDS011;10054;59.332;18.244;2023-07-31T06:29:02;10.57;;;9.57;;
19788;SDS011;10054;59.332;18.244;2023-07-31T06:31:30;11.13;;;9.40;;
19788;SDS011;10054;59.332;18.244;2023-07-31T06:33:59;9.30;;;8.40;;
19788;SDS011;10054;59.332;18.244;2023-07-31T06:36:27;9.43;;;8.43;;
19788;SDS011;10054;59.332;18.244;2023-07-31T06:38:56;9.27;;;8.47;;
19788;SDS011;10054;59.332;18.244;2023-07-31T06:41:24;8.80;;;7.87;;
19788;SDS011;10054;59.332;18.244;2023-07-31T06:43:53;8.80;;;7.97;;
19788;SDS011;10054;59.332;18.244;2023-07-31T06:46:23;8.20;;;7.40;;
19788;SDS011;10054;59.332;18.244;2023-07-31T06:48:52;7.90;;;7.30;;
19788;SDS011;10054;59.332;18.244;2023-07-31T06:51:21;7.70;;;7.10;;
19788;SDS011;10054;59.332;18.244;2023-07-31T06:53:49;7.37;;;6.77;;
19788;SDS011;10054;59.332;18.244;2023-07-31T06:56:18;7.63;;;7.03;;
19788;SDS011;10054;59.332;18.244;2023-07-31T06:58:48;7.90;;;7.30;;
19788;SDS011;10054;59.332;18.244;2023-07-31T07:01:17;8.37;;;7.57;;
19788;SDS011;10054;59.332;18.244;2023-07-31T07:03:45;8.67;;;7.97;;
19788;SDS011;10054;59.332;18.244;2023-07-31T07:06:16;8.50;;;7.80;;
19788;SDS011;10054;59.332;18.244;2023-07-31T07:08:45;7.50;;;6.90;;
19788;SDS011;10054;59.332;18.244;2023-07-31T07:11:13;8.73;;;7.93;;
19788;SDS011;10054;59.332;18.244;2023-07-31T07:13:42;8.23;;;7.53;;
19788;SDS011;10054;59.332;18.244;2023-07-31T07:16:11;7.73;;;7.03;;
19788;SDS011;10054;59.332;18.244;2023-07-31T07:18:39;8.67;;;7.93;;
19788;SDS011;10054;59.332;18.244;2023-07-31T07:21:08;8.10;;;7.50;;
19788;SDS011;10054;59.332;18.244;2023-07-31T07:23:38;7.45;;;6.85;;
19788;SDS011;10054;59.332;18.244;2023-07-31T07:26:06;7.10;;;6.50;;
19788;SDS011;10054;59.332;18.244;2023-07-31T07:28:37;6.83;;;6.33;;
19788;SDS011;10054;59.332;18.244;2023-07-31T07:31:06;6.50;;;5.90;;
19788;SDS011;10054;59.332;18.244;2023-07-31T07:33:34;5.50;;;4.40;;
19788;SDS011;10054;59.332;18.244;2023-07-31T07:36:03;4.83;;;3.37;;
19788;SDS011;10054;59.332;18.244;2023-07-31T07:38:33;4.13;;;3.73;;
19788;SDS011;10054;59.332;18.244;2023-07-31T10:40:23;2.70;;;2.10;;
19788;SDS011;10054;59.332;18.244;2023-07-31T10:42:51;3.17;;;2.27;;
19788;SDS011;10054;59.332;18.244;2023-07-31T10:45:30;4.73;;;2.13;;
19788;SDS011;10054;59.332;18.244;2023-07-31T10:48:15;3.90;;;2.20;;
19788;SDS011;10054;59.332;18.244;2023-07-31T10:53:27;3.73;;;1.90;;
19788;SDS011;10054;59.332;18.244;2023-07-31T10:56:00;4.80;;;2.60;;
19788;SDS011;10054;59.332;18.244;2023-07-31T10:58:32;4.50;;;2.23;;
19788;SDS011;10054;59.332;18.244;2023-07-31T11:01:02;3.73;;;2.23;;
19788;SDS011;10054;59.332;18.244;2023-07-31T11:03:45;5.03;;;2.20;;
19788;SDS011;10054;59.332;18.244;2023-07-31T11:06:15;5.17;;;2.20;;
19788;SDS011;10054;59.332;18.244;2023-07-31T11:08:45;2.30;;;2.00;;
19788;SDS011;10054;59.332;18.244;2023-07-31T11:11:16;2.83;;;2.03;;
19788;SDS011;10054;59.332;18.244;2023-07-31T11:13:47;3.87;;;2.40;;
19788;SDS011;10054;59.332;18.244;2023-07-31T11:16:20;4.63;;;2.33;;
19788;SDS011;10054;59.332;18.244;2023-07-31T11:18:50;5.13;;;2.10;;
19788;SDS011;10054;59.332;18.244;2023-07-31T11:21:22;5.03;;;2.27;;
19788;SDS011;10054;59.332;18.244;2023-07-31T11:23:53;5.00;;;2.27;;
19788;SDS011;10054;59.332;18.244;2023-07-31T11:29:12;5.47;;;2.70;;
19788;SDS011;10054;59.332;18.244;2023-07-31T11:31:44;7.33;;;2.77;;
19788;SDS011;10054;59.332;18.244;2023-07-31T11:34:14;5.57;;;2.73;;
19788;SDS011;10054;59.332;18.244;2023-07-31T11:36:53;2.80;;;2.50;;
19788;SDS011;10054;59.332;18.244;2023-07-31T11:39:22;4.40;;;2.70;;
19788;SDS011;10054;59.332;18.244;2023-07-31T11:41:51;5.80;;;2.77;;
19788;SDS011;10054;59.332;18.244;2023-07-31T11:44:19;5.77;;;2.77;;
19788;SDS011;10054;59.332;18.244;2023-07-31T11:46:49;4.70;;;2.30;;
19788;SDS011;10054;59.332;18.244;2023-07-31T11:49:18;4.33;;;2.60;;
19788;SDS011;10054;59.332;18.244;2023-07-31T11:54:41;5.97;;;2.83;;
19788;SDS011;10054;59.332;18.244;2023-07-31T11:57:10;4.90;;;2.37;;
19788;SDS011;10054;59.332;18.244;2023-07-31T11:59:39;7.53;;;2.70;;
19788;SDS011;10054;59.332;18.244;2023-07-31T12:02:10;3.67;;;2.50;;
19788;SDS011;10054;59.332;18.244;2023-07-31T12:04:39;6.23;;;2.77;;
19788;SDS011;10054;59.332;18.244;2023-07-31T12:07:07;8.23;;;2.83;;
19788;SDS011;10054;59.332;18.244;2023-07-31T12:09:36;4.83;;;2.90;;
19788;SDS011;10054;59.332;18.244;2023-07-31T12:12:08;3.67;;;2.50;;
19788;SDS011;10054;59.332;18.244;2023-07-31T12:14:37;4.30;;;2.50;;
19788;SDS011;10054;59.332;18.244;2023-07-31T12:17:09;3.43;;;2.57;;
19788;SDS011;10054;59.332;18.244;2023-07-31T12:19:38;3.40;;;2.63;;
19788;SDS011;10054;59.332;18.244;2023-07-31T12:22:13;3.47;;;2.63;;
19788;SDS011;10054;59.332;18.244;2023-07-31T12:24:43;5.77;;;2.77;;
19788;SDS011;10054;59.332;18.244;2023-07-31T12:27:12;9.07;;;5.07;;
19788;SDS011;10054;59.332;18.244;2023-07-31T12:29:44;7.17;;;4.43;;
19788;SDS011;10054;59.332;18.244;2023-07-31T12:32:19;7.13;;;4.60;;
19788;SDS011;10054;59.332;18.244;2023-07-31T12:34:49;7.13;;;4.20;;
19788;SDS011;10054;59.332;18.244;2023-07-31T12:37:18;4.60;;;3.20;;
19788;SDS011;10054;59.332;18.244;2023-07-31T12:39:48;3.63;;;2.83;;
19788;SDS011;10054;59.332;18.244;2023-07-31T12:42:17;4.17;;;2.80;;
19788;SDS011;10054;59.332;18.244;2023-07-31T12:44:46;4.70;;;2.60;;
19788;SDS011;10054;59.332;18.244;2023-07-31T12:47:15;4.03;;;2.60;;
19788;SDS011;10054;59.332;18.244;2023-07-31T12:49:43;4.70;;;2.67;;
19788;SDS011;10054;59.332;18.244;2023-07-31T12:52:12;3.47;;;2.40;;
19788;SDS011;10054;59.332;18.244;2023-07-31T12:54:40;3.93;;;2.30;;
19788;SDS011;10054;59.332;18.244;2023-07-31T12:57:09;2.87;;;2.30;;
19788;SDS011;10054;59.332;18.244;2023-07-31T12:59:37;2.67;;;2.10;;
19788;SDS011;10054;59.332;18.244;2023-07-31T13:02:06;3.90;;;2.50;;
19788;SDS011;10054;59.332;18.244;2023-07-31T13:04:34;5.47;;;2.40;;
19788;SDS011;10054;59.332;18.244;2023-07-31T13:07:03;4.37;;;2.05;;
19788;SDS011;10054;59.332;18.244;2023-07-31T13:09:32;2.33;;;2.13;;
19788;SDS011;10054;59.332;18.244;2023-07-31T13:12:01;2.73;;;2.07;;
19788;SDS011;10054;59.332;18.244;2023-07-31T13:14:29;3.25;;;2.30;;
19788;SDS011;10054;59.332;18.244;2023-07-31T13:16:58;4.63;;;2.33;;
19788;SDS011;10054;59.332;18.244;2023-07-31T13:19:26;4.58;;;2.37;;
19788;SDS011;10054;59.332;18.244;2023-07-31T13:21:55;3.20;;;2.20;;
19788;SDS011;10054;59.332;18.244;2023-07-31T13:24:24;2.37;;;2.17;;
19788;SDS011;10054;59.332;18.244;2023-07-31T13:26:52;2.22;;;2.00;;
19788;SDS011;10054;59.332;18.244;2023-07-31T13:29:21;2.50;;;1.93;;
19788;SDS011;10054;59.332;18.244;2023-07-31T13:31:53;2.97;;;2.10;;
19788;SDS011;10054;59.332;18.244;2023-07-31T13:34:21;2.70;;;1.70;;
19788;SDS011;10054;59.332;18.244;2023-07-31T13:36:50;5.53;;;2.22;;
19788;SDS011;10054;59.332;18.244;2023-07-31T13:39:18;2.33;;;2.10;;
19788;SDS011;10054;59.332;18.244;2023-07-31T13:41:47;3.45;;;2.05;;
19788;SDS011;10054;59.332;18.244;2023-07-31T13:44:15;2.30;;;2.10;;
19788;SDS011;10054;59.332;18.244;2023-07-31T13:46:44;2.63;;;1.83;;
19788;SDS011;10054;59.332;18.244;2023-07-31T13:49:12;2.10;;;1.90;;
19788;SDS011;10054;59.332;18.244;2023-07-31T13:51:42;2.33;;;2.08;;
19788;SDS011;10054;59.332;18.244;2023-07-31T13:54:11;5.42;;;2.50;;
19788;SDS011;10054;59.332;18.244;2023-07-31T13:56:42;6.53;;;2.60;;
19788;SDS011;10054;59.332;18.244;2023-07-31T13:59:11;4.53;;;2.23;;
19788;SDS011;10054;59.332;18.244;2023-07-31T14:01:41;4.73;;;2.67;;
19788;SDS011;10054;59.332;18.244;2023-07-31T14:04:12;3.77;;;2.40;;
19788;SDS011;10054;59.332;18.244;2023-07-31T14:06:41;5.83;;;2.90;;
19788;SDS011;10054;59.332;18.244;2023-07-31T14:09:10;5.50;;;2.50;;
19788;SDS011;10054;59.332;18.244;2023-07-31T14:11:38;4.83;;;2.40;;
19788;SDS011;10054;59.332;18.244;2023-07-31T14:14:08;6.62;;;2.80;;
19788;SDS011;10054;59.332;18.244;2023-07-31T14:16:37;5.60;;;2.50;;
19788;SDS011;10054;59.332;18.244;2023-07-31T14:19:05;3.10;;;2.50;;
19788;SDS011;10054;59.332;18.244;2023-07-31T14:21:35;2.73;;;2.47;;
19788;SDS011;10054;59.332;18.244;2023-07-31T14:24:04;4.07;;;2.83;;
19788;SDS011;10054;59.332;18.244;2023-07-31T14:26:32;5.30;;;2.93;;
19788;SDS011;10054;59.332;18.244;2023-07-31T14:29:01;4.17;;;2.90;;
19788;SDS011;10054;59.332;18.244;2023-07-31T14:31:30;4.07;;;2.60;;
19788;SDS011;10054;59.332;18.244;2023-07-31T14:33:58;4.23;;;2.70;;
19788;SDS011;10054;59.332;18.244;2023-07-31T14:36:27;5.27;;;2.60;;
19788;SDS011;10054;59.332;18.244;2023-07-31T14:38:55;3.17;;;2.63;;
19788;SDS011;10054;59.332;18.244;2023-07-31T14:41:24;3.60;;;2.63;;
19788;SDS011;10054;59.332;18.244;2023-07-31T14:43:52;4.13;;;2.73;;
19788;SDS011;10054;59.332;18.244;2023-07-31T14:46:21;5.40;;;2.70;;
19788;SDS011;10054;59.332;18.244;2023-07-31T14:48:50;3.80;;;2.80;;
19788;SDS011;10054;59.332;18.244;2023-07-31T14:51:18;4.27;;;2.60;;
19788;SDS011;10054;59.332;18.244;2023-07-31T14:53:47;6.50;;;3.00;;
19788;SDS011;10054;59.332;18.244;2023-07-31T14:56:16;4.80;;;2.90;;
19788;SDS011;10054;59.332;18.244;2023-07-31T14:58:44;7.10;;;3.23;;
19788;SDS011;10054;59.332;18.244;2023-07-31T15:01:13;7.77;;;3.50;;
19788;SDS011;10054;59.332;18.244;2023-07-31T15:03:41;5.17;;;3.00;;
19788;SDS011;10054;59.332;18.244;2023-07-31T15:06:10;4.73;;;2.90;;
19788;SDS011;10054;59.332;18.244;2023-07-31T15:08:39;4.07;;;2.77;;
19788;SDS011;10054;59.332;18.244;2023-07-31T15:11:09;4.93;;;3.10;;
19788;SDS011;10054;59.332;18.244;2023-07-31T15:13:38;4.53;;;2.67;;
19788;SDS011;10054;59.332;18.244;2023-07-31T15:16:06;6.97;;;3.30;;
19788;SDS011;10054;59.332;18.244;2023-07-31T15:18:35;4.83;;;2.73;;
19788;SDS011;10054;59.332;18.244;2023-07-31T15:21:03;3.20;;;2.80;;
19788;SDS011;10054;59.332;18.244;2023-07-31T15:23:33;2.60;;;2.40;;
19788;SDS011;10054;59.332;18.244;2023-07-31T15:26:01;4.07;;;3.00;;
19788;SDS011;10054;59.332;18.244;2023-07-31T15:28:30;5.33;;;2.77;;
19788;SDS011;10054;59.332;18.244;2023-07-31T15:31:01;3.43;;;2.70;;
19788;SDS011;10054;59.332;18.244;2023-07-31T15:33:29;5.37;;;2.70;;
19788;SDS011;10054;59.332;18.244;2023-07-31T15:35:58;3.83;;;2.63;;
19788;SDS011;10054;59.332;18.244;2023-07-31T15:38:26;5.87;;;2.70;;
19788;SDS011;10054;59.332;18.244;2023-07-31T15:40:55;3.67;;;2.90;;
19788;SDS011;10054;59.332;18.244;2023-07-31T15:43:26;3.27;;;2.97;;
19788;SDS011;10054;59.332;18.244;2023-07-31T15:45:56;3.67;;;2.77;;
19788;SDS011;10054;59.332;18.244;2023-07-31T15:48:24;6.40;;;3.07;;
19788;SDS011;10054;59.332;18.244;2023-07-31T15:50:53;5.67;;;3.00;;
19788;SDS011;10054;59.332;18.244;2023-07-31T15:55:52;4.77;;;2.90;;
19788;SDS011;10054;59.332;18.244;2023-07-31T15:58:21;5.50;;;2.73;;
19788;SDS011;10054;59.332;18.244;2023-07-31T16:00:50;5.57;;;3.00;;
19788;SDS011;10054;59.332;18.244;2023-07-31T16:03:19;4.00;;;2.60;;
19788;SDS011;10054;59.332;18.244;2023-07-31T16:05:48;4.53;;;2.90;;
19788;SDS011;10054;59.332;18.244;2023-07-31T16:08:16;3.23;;;3.00;;
19788;SDS011;10054;59.332;18.244;2023-07-31T16:10:45;5.43;;;3.00;;
19788;SDS011;10054;59.332;18.244;2023-07-31T16:13:14;4.10;;;2.70;;
19788;SDS011;10054;59.332;18.244;2023-07-31T16:15:43;4.87;;;2.70;;
19788;SDS011;10054;59.332;18.244;2023-07-31T16:18:11;4.07;;;3.03;;
19788;SDS011;10054;59.332;18.244;2023-07-31T16:20:40;5.43;;;2.63;;
19788;SDS011;10054;59.332;18.244;2023-07-31T16:23:09;5.17;;;2.83;;
19788;SDS011;10054;59.332;18.244;2023-07-31T16:25:37;4.00;;;2.73;;
19788;SDS011;10054;59.332;18.244;2023-07-31T16:28:06;4.03;;;2.67;;
19788;SDS011;10054;59.332;18.244;2023-07-31T16:30:35;3.57;;;2.60;;
19788;SDS011;10054;59.332;18.244;2023-07-31T16:33:04;4.73;;;2.83;;
19788;SDS011;10054;59.332;18.244;2023-07-31T16:35:33;3.47;;;2.80;;
19788;SDS011;10054;59.332;18.244;2023-07-31T16:38:02;4.83;;;2.73;;
19788;SDS011;10054;59.332;18.244;2023-07-31T16:40:30;2.57;;;2.37;;
19788;SDS011;10054;59.332;18.244;2023-07-31T16:42:59;2.73;;;2.37;;
19788;SDS011;10054;59.332;18.244;2023-07-31T16:45:28;4.10;;;2.50;;
19788;SDS011;10054;59.332;18.244;2023-07-31T16:47:56;5.23;;;2.80;;
19788;SDS011;10054;59.332;18.244;2023-07-31T16:50:25;4.30;;;2.77;;
19788;SDS011;10054;59.332;18.244;2023-07-31T16:52:54;2.70;;;2.50;;
19788;SDS011;10054;59.332;18.244;2023-07-31T16:55:23;3.37;;;2.73;;
19788;SDS011;10054;59.332;18.244;2023-07-31T16:57:51;5.70;;;2.67;;
19788;SDS011;10054;59.332;18.244;2023-07-31T17:00:22;2.90;;;2.23;;
19788;SDS011;10054;59.332;18.244;2023-07-31T17:03:02;9.57;;;3.07;;
19788;SDS011;10054;59.332;18.244;2023-07-31T17:05:32;4.50;;;2.67;;
19788;SDS011;10054;59.332;18.244;2023-07-31T17:08:02;5.50;;;2.53;;
19788;SDS011;10054;59.332;18.244;2023-07-31T17:10:30;4.57;;;2.60;;
19788;SDS011;10054;59.332;18.244;2023-07-31T17:12:59;3.37;;;2.40;;
19788;SDS011;10054;59.332;18.244;2023-07-31T17:15:28;7.67;;;2.90;;
19788;SDS011;10054;59.332;18.244;2023-07-31T17:17:56;4.80;;;2.30;;
19788;SDS011;10054;59.332;18.244;2023-07-31T17:20:25;2.73;;;2.33;;
19788;SDS011;10054;59.332;18.244;2023-07-31T17:22:53;7.43;;;2.50;;
19788;SDS011;10054;59.332;18.244;2023-07-31T17:25:22;4.03;;;2.90;;
19788;SDS011;10054;59.332;18.244;2023-07-31T17:27:50;3.17;;;2.53;;
19788;SDS011;10054;59.332;18.244;2023-07-31T17:30:19;4.63;;;2.50;;
19788;SDS011;10054;59.332;18.244;2023-07-31T17:32:47;4.37;;;2.57;;
19788;SDS011;10054;59.332;18.244;2023-07-31T17:35:16;5.37;;;3.33;;
19788;SDS011;10054;59.332;18.244;2023-07-31T17:37:45;5.37;;;2.67;;
19788;SDS011;10054;59.332;18.244;2023-07-31T17:40:14;3.50;;;3.07;;
19788;SDS011;10054;59.332;18.244;2023-07-31T17:42:42;5.20;;;2.73;;
19788;SDS011;10054;59.332;18.244;2023-07-31T17:45:11;4.13;;;2.93;;
19788;SDS011;10054;59.332;18.244;2023-07-31T17:47:40;5.60;;;3.00;;
19788;SDS011;10054;59.332;18.244;2023-07-31T17:50:08;4.10;;;3.00;;
19788;SDS011;10054;59.332;18.244;2023-07-31T17:52:37;3.97;;;3.23;;
19788;SDS011;10054;59.332;18.244;2023-07-31T17:55:07;5.77;;;2.90;;
19788;SDS011;10054;59.332;18.244;2023-07-31T17:57:35;5.43;;;2.70;;
19788;SDS011;10054;59.332;18.244;2023-07-31T18:00:05;3.30;;;2.60;;
19788;SDS011;10054;59.332;18.244;2023-07-31T18:02:35;2.90;;;2.60;;